Time;durP1;ratioP1;P1;durP2;ratioP2;P2;SDS_P1;SDS_P2;PMS_P1;PMS_P2;Temp;Humidity;BMP_temperature;BMP_pressure;BME280_temperature;BME280_humidity;BME280_pressure;Samples;Min_cycle;Max_cycle;Signal;HPM_P1;HPM_P2
2023/01/25 00:02:00;;;;;;;29.63;20.77;;;1.40;99.90;;;;;;5092913;28;20377;-63
2023/01/25 00:04:26;;;;;;;28.77;20.55;;;1.40;99.90;;;;;;5091172;28;20035;-63
2023/01/25 00:06:51;;;;;;;28.80;20.02;;;1.40;99.90;;;;;;5079993;28;20332;-63
2023/01/25 00:09:18;;;;;;;22.98;17.10;;;1.40;99.90;;;;;;5092636;28;20077;-63
2023/01/25 00:11:44;;;;;;;22.85;17.92;;;1.50;99.90;;;;;;5078899;28;20024;-63
2023/01/25 00:14:10;;;;;;;27.95;20.20;;;1.50;99.90;;;;;;5093487;28;20165;-63
2023/01/25 00:16:37;;;;;;;24.85;18.35;;;1.50;99.90;;;;;;5071552;28;20032;-63
2023/01/25 00:19:03;;;;;;;26.85;18.65;;;1.60;99.90;;;;;;5079086;28;20027;-63
2023/01/25 00:21:29;;;;;;;23.17;16.50;;;1.60;99.90;;;;;;5091081;28;20496;-63
2023/01/25 00:23:54;;;;;;;20.05;14.48;;;1.60;99.90;;;;;;5073215;28;20024;-63
2023/01/25 00:26:20;;;;;;;20.05;14.27;;;1.70;99.90;;;;;;5113375;27;20031;-63
2023/01/25 00:28:51;;;;;;;19.55;14.20;;;1.70;99.90;;;;;;5072329;28;20027;-63
2023/01/25 00:31:36;;;;;;;21.48;15.57;;;1.80;99.90;;;;;;5092989;28;20022;-63
2023/01/25 00:34:28;;;;;;;32.15;23.13;;;1.70;99.90;;;;;;5090463;28;20181;-63
2023/01/25 00:37:26;;;;;;;29.80;21.17;;;1.60;99.90;;;;;;5092625;28;20027;-63
2023/01/25 00:39:52;;;;;;;33.13;23.85;;;1.50;99.90;;;;;;5092666;28;20028;-63
2023/01/25 00:42:18;;;;;;;32.63;24.17;;;1.30;99.90;;;;;;5092985;28;20373;-63
2023/01/25 00:44:45;;;;;;;32.65;22.85;;;1.20;99.90;;;;;;5092918;28;20127;-63
2023/01/25 00:47:11;;;;;;;32.83;23.70;;;1.10;99.90;;;;;;5096007;28;20089;-63
2023/01/25 00:49:38;;;;;;;33.55;25.30;;;1.10;99.90;;;;;;5091166;28;20547;-63
2023/01/25 00:52:04;;;;;;;35.15;23.48;;;1.00;99.90;;;;;;5090532;28;20461;-63
2023/01/25 00:54:30;;;;;;;29.08;21.45;;;1.00;99.90;;;;;;5095756;28;20556;-63
2023/01/25 00:56:55;;;;;;;33.55;23.90;;;1.00;99.90;;;;;;5094143;28;20369;-63
2023/01/25 00:59:22;;;;;;;33.95;23.83;;;1.10;99.90;;;;;;5093580;28;20059;-63
2023/01/25 01:01:48;;;;;;;34.33;24.42;;;1.10;99.90;;;;;;5072805;28;20020;-63
2023/01/25 01:04:14;;;;;;;29.80;21.23;;;1.10;99.90;;;;;;5091371;28;20028;-62
2023/01/25 01:06:40;;;;;;;26.17;19.35;;;1.10;99.90;;;;;;5092814;28;20034;-62
2023/01/25 01:09:11;;;;;;;25.05;17.73;;;1.10;99.90;;;;;;5093977;28;20021;-62
2023/01/25 01:11:36;;;;;;;25.05;16.90;;;1.20;99.90;;;;;;5089246;28;20053;-63
2023/01/25 01:14:02;;;;;;;21.55;16.05;;;1.30;99.90;;;;;;5089952;28;20024;-63
2023/01/25 01:16:27;;;;;;;22.50;16.85;;;1.40;99.90;;;;;;5092870;28;20056;-63
2023/01/25 01:18:53;;;;;;;22.65;16.17;;;1.40;99.90;;;;;;5095287;28;20047;-63
2023/01/25 01:21:19;;;;;;;31.73;22.23;;;1.40;99.90;;;;;;5095359;28;20031;-63
2023/01/25 01:23:45;;;;;;;29.73;21.75;;;1.40;99.90;;;;;;5092750;28;20024;-62
2023/01/25 01:26:13;;;;;;;26.25;19.02;;;1.40;99.90;;;;;;5089419;28;20031;-63
2023/01/25 01:28:39;;;;;;;28.83;20.95;;;1.40;99.90;;;;;;5089491;28;20020;-63
2023/01/25 01:31:11;;;;;;;25.80;18.98;;;1.40;99.90;;;;;;5089635;28;20062;-63
2023/01/25 01:33:37;;;;;;;24.58;18.38;;;1.40;99.90;;;;;;5091974;27;20023;-63
2023/01/25 01:36:11;;;;;;;24.98;17.92;;;1.40;99.90;;;;;;5092421;28;20523;-63
2023/01/25 01:38:37;;;;;;;26.45;19.13;;;1.50;99.90;;;;;;5089179;28;20572;-63
2023/01/25 01:41:03;;;;;;;24.75;17.83;;;1.50;99.90;;;;;;5074143;28;20118;-62
2023/01/25 01:43:29;;;;;;;24.88;18.17;;;1.50;99.90;;;;;;5089153;28;20020;-62
2023/01/25 01:45:58;;;;;;;25.80;17.58;;;1.50;99.90;;;;;;5094258;28;20055;-62
2023/01/25 01:48:39;;;;;;;23.98;17.42;;;1.50;99.90;;;;;;5088987;28;20016;-63
2023/01/25 01:51:47;;;;;;;25.42;17.88;;;1.60;99.90;;;;;;5094786;28;20031;-63
2023/01/25 01:54:31;;;;;;;22.90;16.20;;;1.60;99.90;;;;;;5077727;28;20040;-63
2023/01/25 01:57:07;;;;;;;20.90;15.80;;;1.50;99.90;;;;;;5093505;28;20024;-63
2023/01/25 01:59:37;;;;;;;21.95;15.93;;;1.50;99.90;;;;;;5094887;28;20035;-63
2023/01/25 02:02:04;;;;;;;20.75;14.93;;;1.50;99.90;;;;;;5090433;28;20020;-64
2023/01/25 02:04:29;;;;;;;20.80;15.00;;;1.50;99.90;;;;;;5105164;27;20058;-63
2023/01/25 02:07:03;;;;;;;21.35;15.00;;;1.60;99.90;;;;;;5114325;27;20442;-62
2023/01/25 02:09:30;;;;;;;20.52;14.68;;;1.60;99.90;;;;;;5098701;28;20484;-63
2023/01/25 02:11:56;;;;;;;20.85;15.27;;;1.60;99.90;;;;;;5100779;27;20122;-63
2023/01/25 02:14:22;;;;;;;21.33;15.02;;;1.60;99.90;;;;;;5101311;27;20128;-63
2023/01/25 02:16:48;;;;;;;21.77;16.08;;;1.60;99.90;;;;;;5110165;27;20054;-63
2023/01/25 02:19:37;;;;;;;24.35;17.70;;;1.60;99.90;;;;;;5084319;28;20448;-63
2023/01/25 02:22:12;;;;;;;22.90;16.80;;;1.60;99.90;;;;;;5099232;28;20020;-63
2023/01/25 02:24:41;;;;;;;24.85;17.60;;;1.60;99.90;;;;;;5086916;28;20024;-63
2023/01/25 02:27:07;;;;;;;23.65;16.40;;;1.50;99.90;;;;;;5072594;28;20739;-63
2023/01/25 02:29:33;;;;;;;22.10;15.68;;;1.50;99.90;;;;;;5099648;28;20039;-63
2023/01/25 02:32:02;;;;;;;21.00;16.13;;;1.50;99.90;;;;;;5098504;28;20553;-63
2023/01/25 02:34:27;;;;;;;24.23;16.30;;;1.60;99.90;;;;;;5080996;28;20035;-63
2023/01/25 02:36:53;;;;;;;21.08;15.57;;;1.60;99.90;;;;;;5107977;27;20019;-63
2023/01/25 02:39:19;;;;;;;25.13;18.15;;;1.60;99.90;;;;;;5090427;28;20037;-62
2023/01/25 02:41:46;;;;;;;26.15;18.95;;;1.60;99.90;;;;;;5102188;28;20012;-63
2023/01/25 02:44:25;;;;;;;23.77;17.08;;;1.60;99.90;;;;;;5102536;28;20015;-63
2023/01/25 02:46:52;;;;;;;26.15;18.17;;;1.60;99.90;;;;;;5103432;28;20031;-63
2023/01/25 02:49:18;;;;;;;25.20;17.58;;;1.60;99.90;;;;;;5105976;28;20015;-63
2023/01/25 02:51:47;;;;;;;23.75;16.48;;;1.60;99.90;;;;;;5111388;27;20020;-63
2023/01/25 02:54:15;;;;;;;24.52;17.85;;;1.60;99.90;;;;;;5070690;28;20500;-63
2023/01/25 02:56:41;;;;;;;23.55;16.00;;;1.60;99.90;;;;;;5102022;28;20028;-63
2023/01/25 02:59:08;;;;;;;21.00;14.90;;;1.60;99.90;;;;;;5101749;28;20027;-63
2023/01/25 03:01:36;;;;;;;21.65;15.05;;;1.60;99.90;;;;;;5080590;28;20032;-62
2023/01/25 03:04:02;;;;;;;23.30;15.38;;;1.60;99.90;;;;;;5102174;28;20023;-63
2023/01/25 03:06:27;;;;;;;22.20;15.65;;;1.60;99.90;;;;;;5106741;28;20024;-63
2023/01/25 03:08:53;;;;;;;21.80;15.40;;;1.60;99.90;;;;;;5103385;28;20031;-63
2023/01/25 03:11:18;;;;;;;21.05;15.77;;;1.60;99.90;;;;;;5101410;28;20030;-63
2023/01/25 03:13:44;;;;;;;21.55;15.32;;;1.70;99.90;;;;;;5103205;28;20377;-63
2023/01/25 03:16:11;;;;;;;23.77;16.00;;;1.70;99.90;;;;;;5104324;28;20063;-63
2023/01/25 03:18:37;;;;;;;21.70;15.02;;;1.70;99.90;;;;;;5104160;28;20106;-63
2023/01/25 03:21:15;;;;;;;24.98;17.33;;;1.70;99.90;;;;;;5087286;28;20043;-63
2023/01/25 03:23:42;;;;;;;25.88;17.58;;;1.60;99.90;;;;;;5102661;28;20386;-63
2023/01/25 03:26:09;;;;;;;25.85;18.10;;;1.60;99.90;;;;;;5103887;28;20022;-63
2023/01/25 03:28:34;;;;;;;28.60;20.50;;;1.60;99.90;;;;;;5106526;27;20027;-63
2023/01/25 03:31:00;;;;;;;30.17;20.20;;;1.50;99.90;;;;;;5088089;27;20028;-63
2023/01/25 03:33:25;;;;;;;33.47;22.42;;;1.50;99.90;;;;;;5108918;27;20114;-63
2023/01/25 03:35:53;;;;;;;36.65;24.85;;;1.50;99.90;;;;;;5107195;27;20035;-63
2023/01/25 03:38:21;;;;;;;46.92;31.67;;;1.40;99.90;;;;;;5109682;27;20024;-63
2023/01/25 03:40:47;;;;;;;42.22;29.23;;;1.30;99.90;;;;;;5087960;27;20111;-63
2023/01/25 03:43:12;;;;;;;40.70;26.90;;;1.20;99.90;;;;;;5113933;27;20027;-63
2023/01/25 03:45:38;;;;;;;35.25;24.73;;;1.20;99.90;;;;;;5107486;27;20023;-63
2023/01/25 03:48:04;;;;;;;33.55;22.48;;;1.20;99.90;;;;;;5120921;27;20025;-62
2023/01/25 03:50:30;;;;;;;29.23;20.80;;;1.30;99.90;;;;;;5105665;27;20553;-63
2023/01/25 03:53:01;;;;;;;28.10;19.17;;;1.30;99.90;;;;;;5109781;27;20400;-63
2023/01/25 03:55:26;;;;;;;27.95;18.83;;;1.40;99.90;;;;;;5109252;27;20024;-63
2023/01/25 03:57:52;;;;;;;27.00;18.52;;;1.40;99.90;;;;;;5110686;27;20028;-63
2023/01/25 04:00:18;;;;;;;23.58;16.35;;;1.40;99.90;;;;;;5110686;27;20020;-63
2023/01/25 04:02:45;;;;;;;25.65;17.45;;;1.50;99.90;;;;;;5104779;27;20047;-62
2023/01/25 04:05:11;;;;;;;29.92;19.75;;;1.50;99.90;;;;;;5105430;27;20370;-63
2023/01/25 04:07:36;;;;;;;47.40;30.50;;;1.40;99.90;;;;;;5102528;27;20031;-63
2023/01/25 04:10:03;;;;;;;48.60;31.08;;;1.40;99.90;;;;;;5106370;27;20027;-63
2023/01/25 04:12:28;;;;;;;44.67;29.63;;;1.20;99.90;;;;;;5104659;27;20035;-62
2023/01/25 04:14:54;;;;;;;43.08;28.88;;;1.10;99.90;;;;;;5109923;27;20031;-62
2023/01/25 04:17:20;;;;;;;36.80;25.08;;;1.10;99.90;;;;;;5102426;27;20032;-63
2023/01/25 04:19:45;;;;;;;44.50;29.88;;;1.10;99.90;;;;;;5107857;27;20019;-62
2023/01/25 04:22:11;;;;;;;45.13;30.63;;;1.00;99.90;;;;;;5106622;27;20053;-62
2023/01/25 04:24:37;;;;;;;45.22;29.38;;;1.00;99.90;;;;;;5106714;27;20065;-63
2023/01/25 04:27:03;;;;;;;41.28;27.08;;;1.00;99.90;;;;;;5094681;28;20020;-62
2023/01/25 04:29:29;;;;;;;43.40;29.20;;;1.00;99.90;;;;;;5109821;27;20485;-63
2023/01/25 04:31:54;;;;;;;40.15;25.80;;;1.00;99.90;;;;;;5093305;28;20080;-63
2023/01/25 04:34:20;;;;;;;37.25;24.55;;;1.00;99.90;;;;;;5109621;27;20484;-62
2023/01/25 04:36:46;;;;;;;33.22;21.75;;;1.00;99.90;;;;;;5091088;27;20035;-63
2023/01/25 04:39:11;;;;;;;49.97;33.33;;;1.10;99.90;;;;;;5089675;28;20024;-62
2023/01/25 04:41:37;;;;;;;52.60;34.60;;;1.10;99.90;;;;;;5107419;28;20435;-62
2023/01/25 04:44:02;;;;;;;43.75;28.45;;;1.00;99.90;;;;;;5107333;28;20073;-63
2023/01/25 04:46:28;;;;;;;46.75;30.15;;;1.00;99.90;;;;;;5106698;28;20457;-63
2023/01/25 04:48:53;;;;;;;48.45;32.13;;;0.90;99.90;;;;;;5104746;28;20020;-63
2023/01/25 04:51:19;;;;;;;55.85;36.28;;;0.90;99.90;;;;;;5088088;28;20438;-63
2023/01/25 04:53:45;;;;;;;50.10;32.30;;;0.80;99.90;;;;;;5105088;28;20027;-63
2023/01/25 04:56:10;;;;;;;42.58;27.00;;;0.80;99.90;;;;;;5108410;28;20106;-62
2023/01/25 04:58:36;;;;;;;42.03;27.17;;;0.90;99.90;;;;;;5083270;28;20023;-63
2023/01/25 05:01:02;;;;;;;44.85;29.00;;;0.90;99.90;;;;;;5104615;28;20028;-62
2023/01/25 05:03:27;;;;;;;41.50;26.67;;;1.00;99.90;;;;;;5100137;27;20028;-63
2023/01/25 05:05:53;;;;;;;38.30;24.95;;;1.00;99.90;;;;;;5105422;28;20076;-63
2023/01/25 05:08:19;;;;;;;36.85;23.65;;;1.00;99.90;;;;;;5100378;28;20077;-62
2023/01/25 05:10:45;;;;;;;34.42;21.73;;;1.10;99.90;;;;;;5107556;27;20437;-62
2023/01/25 05:13:10;;;;;;;29.45;18.33;;;1.10;99.90;;;;;;5080619;28;20032;-62
2023/01/25 05:15:36;;;;;;;49.80;31.85;;;1.10;99.90;;;;;;5107067;28;20049;-62
2023/01/25 05:18:02;;;;;;;51.85;34.22;;;1.10;99.90;;;;;;5106504;28;20145;-63
2023/01/25 05:20:28;;;;;;;58.35;35.42;;;1.00;99.90;;;;;;5083560;28;20282;-62
2023/01/25 05:22:53;;;;;;;59.95;37.53;;;0.90;99.90;;;;;;5103864;28;20028;-62
2023/01/25 05:28:05;;;;;;;58.35;36.05;;;0.70;99.90;;;;;;5103054;28;20035;-62
2023/01/25 05:30:31;;;;;;;56.08;33.35;;;0.70;99.90;;;;;;5107274;28;20016;-63
2023/01/25 05:32:56;;;;;;;49.90;31.25;;;0.70;99.90;;;;;;5106370;28;20545;-63
2023/01/25 05:35:22;;;;;;;51.08;32.45;;;0.80;99.90;;;;;;5104275;28;20032;-62
2023/01/25 05:37:47;;;;;;;67.13;39.95;;;0.80;99.90;;;;;;5102418;28;20027;-62
2023/01/25 05:40:13;;;;;;;66.05;39.75;;;0.80;99.90;;;;;;5104838;28;20031;-62
2023/01/25 05:42:39;;;;;;;63.70;38.40;;;0.70;99.90;;;;;;5105576;28;20496;-62
2023/01/25 05:45:05;;;;;;;65.20;39.35;;;0.60;99.90;;;;;;5103743;28;20503;-63
2023/01/25 05:47:31;;;;;;;70.68;41.03;;;0.60;99.90;;;;;;5074679;28;20046;-62
2023/01/25 05:49:56;;;;;;;62.97;37.60;;;0.60;99.90;;;;;;5107477;28;20524;-62
2023/01/25 05:52:22;;;;;;;71.38;42.55;;;0.50;99.90;;;;;;5101838;28;20541;-62
2023/01/25 05:54:48;;;;;;;70.22;42.55;;;0.50;99.90;;;;;;5106205;28;20034;-63
2023/01/25 05:57:14;;;;;;;70.80;42.13;;;0.50;99.90;;;;;;5101382;28;20032;-63
2023/01/25 05:59:39;;;;;;;59.58;36.22;;;0.40;99.90;;;;;;5087375;28;20119;-63
2023/01/25 06:02:05;;;;;;;72.20;42.20;;;0.40;99.90;;;;;;5107006;28;20032;-62
2023/01/25 06:04:31;;;;;;;77.38;44.38;;;0.40;99.90;;;;;;5086042;28;20026;-62
2023/01/25 06:06:56;;;;;;;73.97;41.80;;;0.30;99.90;;;;;;5091924;28;20020;-62
2023/01/25 06:09:22;;;;;;;68.05;39.13;;;0.30;99.90;;;;;;5083442;28;20027;-62
2023/01/25 06:11:47;;;;;;;67.78;38.17;;;0.30;99.90;;;;;;5102341;28;20018;-62
2023/01/25 06:14:13;;;;;;;59.88;32.97;;;0.30;99.90;;;;;;5098123;28;20038;-62
2023/01/25 06:16:39;;;;;;;73.53;40.90;;;0.40;99.90;;;;;;5061663;28;20056;-62
2023/01/25 06:19:06;;;;;;;74.70;43.17;;;0.40;99.90;;;;;;5066391;28;20025;-62
2023/01/25 06:21:35;;;;;;;73.43;41.03;;;0.40;99.90;;;;;;5060741;28;20505;-63
2023/01/25 06:24:00;;;;;;;69.30;38.38;;;0.40;99.90;;;;;;5062248;28;20017;-62
2023/01/25 06:26:26;;;;;;;64.85;38.38;;;0.40;99.90;;;;;;5061901;28;20025;-62
2023/01/25 06:28:51;;;;;;;58.60;34.22;;;0.40;99.90;;;;;;5066288;28;20026;-62
2023/01/25 06:31:18;;;;;;;59.22;33.35;;;0.50;99.90;;;;;;5067640;28;20493;-62
2023/01/25 06:33:48;;;;;;;55.83;30.25;;;0.50;99.90;;;;;;5063991;28;20028;-62
2023/01/25 06:36:14;;;;;;;;;;;0.60;99.90;;;;;;5064820;28;20035;-62
2023/01/25 06:38:40;;;;;;;64.35;35.08;;;0.50;99.90;;;;;;5069690;28;19908;-62
2023/01/25 06:41:09;;;;;;;60.83;33.88;;;0.50;99.90;;;;;;5069998;28;20051;-62
2023/01/25 06:43:34;;;;;;;69.15;38.03;;;0.50;99.90;;;;;;5057375;28;20021;-62
2023/01/25 06:46:02;;;;;;;61.42;33.88;;;0.60;99.90;;;;;;5059079;28;20013;-62
2023/01/25 06:48:28;;;;;;;72.70;39.33;;;0.60;99.90;;;;;;5071547;28;20536;-62
2023/01/25 06:50:55;;;;;;;71.07;40.80;;;0.60;99.90;;;;;;5050656;28;20056;-62
2023/01/25 06:53:21;;;;;;;73.75;41.33;;;0.60;99.90;;;;;;5051323;28;20028;-62
2023/01/25 06:55:46;;;;;;;68.97;38.55;;;0.50;99.90;;;;;;5062023;28;20032;-62
2023/01/25 06:58:12;;;;;;;70.35;40.17;;;0.50;99.90;;;;;;5060251;28;20425;-62
2023/01/25 07:00:37;;;;;;;66.20;36.22;;;0.50;99.90;;;;;;5061810;28;20078;-62
2023/01/25 07:03:03;;;;;;;54.97;31.45;;;0.60;99.90;;;;;;5053130;28;20040;-62
2023/01/25 07:05:28;;;;;;;55.00;31.05;;;0.60;99.90;;;;;;5062480;28;20024;-62
2023/01/25 07:07:54;;;;;;;60.47;33.38;;;0.60;99.90;;;;;;5069456;28;20020;-62
2023/01/25 07:10:19;;;;;;;56.80;31.42;;;0.70;99.90;;;;;;5069679;28;20040;-62
2023/01/25 07:12:45;;;;;;;61.85;31.48;;;0.70;99.90;;;;;;5063121;28;20046;-62
2023/01/25 07:15:10;;;;;;;55.80;30.88;;;0.70;99.90;;;;;;5061723;28;20040;-62
2023/01/25 07:17:36;;;;;;;53.70;29.45;;;0.70;99.90;;;;;;5098595;28;20032;-62
2023/01/25 07:20:01;;;;;;;52.67;29.73;;;0.80;99.90;;;;;;5095933;28;20500;-62
2023/01/25 07:22:27;;;;;;;52.10;29.20;;;0.80;99.90;;;;;;5091442;28;20466;-62
2023/01/25 07:24:52;;;;;;;55.00;30.45;;;0.80;99.90;;;;;;5091250;28;20372;-62
2023/01/25 07:27:18;;;;;;;52.50;29.08;;;0.80;99.90;;;;;;5091530;28;20504;-62
2023/01/25 07:29:44;;;;;;;51.78;29.50;;;0.70;99.90;;;;;;5111033;28;20508;-62
2023/01/25 07:32:12;;;;;;;66.03;35.97;;;0.80;99.90;;;;;;5111742;28;20027;-62
2023/01/25 07:34:38;;;;;;;78.32;43.15;;;0.70;99.90;;;;;;5098030;28;20024;-62
2023/01/25 07:37:03;;;;;;;76.95;41.13;;;0.60;99.90;;;;;;5111119;28;20031;-62
2023/01/25 07:39:29;;;;;;;71.82;39.95;;;0.60;99.90;;;;;;5103764;28;20024;-62
2023/01/25 07:41:54;;;;;;;64.10;34.75;;;0.50;99.90;;;;;;5079497;28;20024;-63
2023/01/25 07:44:20;;;;;;;65.47;36.00;;;0.50;99.90;;;;;;5119461;28;20517;-62
2023/01/25 07:46:46;;;;;;;68.60;36.83;;;0.50;99.90;;;;;;5073683;28;20060;-62
2023/01/25 07:49:12;;;;;;;65.13;35.78;;;0.60;99.90;;;;;;5099312;28;20489;-62
2023/01/25 07:51:37;;;;;;;63.58;34.35;;;0.50;99.90;;;;;;5088969;28;20031;-62
2023/01/25 07:54:04;;;;;;;63.28;33.80;;;0.50;99.90;;;;;;5104240;28;20103;-62
2023/01/25 07:56:31;;;;;;;59.45;33.50;;;0.50;99.90;;;;;;5108547;28;20035;-62
2023/01/25 07:58:58;;;;;;;53.45;30.17;;;0.60;99.90;;;;;;5104362;28;20744;-62
2023/01/25 08:01:25;;;;;;;51.78;29.08;;;0.60;99.90;;;;;;5092004;28;20025;-62
2023/01/25 08:03:51;;;;;;;47.30;25.95;;;0.60;99.90;;;;;;5101412;28;20011;-62
2023/01/25 08:06:29;;;;;;;42.85;25.55;;;0.70;99.90;;;;;;5110512;28;20016;-62
2023/01/25 08:08:56;;;;;;;42.03;23.65;;;0.70;99.90;;;;;;5099364;28;20448;-62
2023/01/25 08:11:28;;;;;;;52.70;28.38;;;0.70;99.90;;;;;;5109647;28;20435;-62
2023/01/25 08:13:54;;;;;;;69.10;39.40;;;0.80;99.90;;;;;;5085004;28;20401;-62
2023/01/25 08:16:22;;;;;;;75.63;41.33;;;0.70;99.90;;;;;;5106659;28;20452;-62
2023/01/25 08:18:50;;;;;;;72.32;41.05;;;0.60;99.90;;;;;;5075956;28;20052;-62
2023/01/25 08:21:16;;;;;;;61.30;34.67;;;0.60;99.90;;;;;;5103625;28;20080;-62
2023/01/25 08:23:41;;;;;;;59.22;34.35;;;0.50;99.90;;;;;;5089394;28;20024;-62
2023/01/25 08:26:10;;;;;;;57.60;33.30;;;0.60;99.90;;;;;;5107215;28;20028;-62
2023/01/25 08:28:35;;;;;;;59.22;32.40;;;0.60;99.90;;;;;;5091484;28;20039;-62
2023/01/25 08:31:13;;;;;;;58.50;32.13;;;0.60;99.90;;;;;;5106826;27;20012;-62
2023/01/25 08:33:39;;;;;;;62.28;33.70;;;0.70;99.90;;;;;;5094533;28;20082;-62
2023/01/25 08:36:07;;;;;;;59.97;31.88;;;0.70;99.90;;;;;;5094504;28;20035;-62
2023/01/25 08:38:33;;;;;;;54.15;30.05;;;0.70;99.90;;;;;;5094060;28;20024;-62
2023/01/25 08:41:10;;;;;;;49.08;27.73;;;0.70;99.90;;;;;;5075343;28;20389;-62
2023/01/25 08:43:37;;;;;;;44.22;25.38;;;0.80;99.90;;;;;;5101161;28;20035;-62
2023/01/25 08:46:03;;;;;;;51.13;29.55;;;0.80;99.90;;;;;;5096094;27;20028;-63
2023/01/25 08:48:29;;;;;;;79.65;44.28;;;0.80;99.90;;;;;;5097298;28;20090;-62
2023/01/25 08:50:54;;;;;;;72.00;41.75;;;0.60;99.90;;;;;;5098120;28;20481;-63
2023/01/25 08:53:20;;;;;;;71.38;39.97;;;0.50;99.90;;;;;;5096709;28;20031;-63
2023/01/25 08:55:45;;;;;;;74.70;40.63;;;0.50;99.90;;;;;;5112005;28;20062;-62
2023/01/25 08:58:12;;;;;;;62.95;34.08;;;0.40;99.90;;;;;;5112400;28;20049;-62
2023/01/25 09:00:39;;;;;;;55.13;30.80;;;0.50;99.90;;;;;;5076453;28;20107;-62
2023/01/25 09:03:09;;;;;;;50.67;28.02;;;0.60;99.90;;;;;;5107405;28;20074;-62
2023/01/25 09:05:35;;;;;;;;;;;0.70;99.90;;;;;;5077478;28;20039;-63
2023/01/25 09:08:01;;;;;;;48.63;25.77;;;0.70;99.90;;;;;;5099240;28;19904;-62
2023/01/25 09:10:27;;;;;;;43.85;25.90;;;0.70;99.90;;;;;;5093282;28;20028;-63
2023/01/25 09:12:52;;;;;;;48.45;27.27;;;0.80;99.90;;;;;;5109480;27;20496;-63
2023/01/25 09:15:18;;;;;;;49.95;27.77;;;0.80;99.90;;;;;;5095868;28;20097;-63
2023/01/25 09:17:44;;;;;;;52.58;29.52;;;0.80;99.90;;;;;;5104162;28;20101;-63
2023/01/25 09:20:10;;;;;;;60.38;34.85;;;0.90;99.90;;;;;;5106843;28;20489;-63
2023/01/25 09:22:36;;;;;;;67.78;38.50;;;0.90;99.90;;;;;;5107229;28;20026;-63
2023/01/25 09:25:02;;;;;;;64.43;35.95;;;0.90;99.90;;;;;;5103151;28;20477;-62
2023/01/25 09:27:27;;;;;;;64.70;36.97;;;0.90;99.90;;;;;;5111199;28;20058;-63
2023/01/25 09:29:53;;;;;;;61.60;34.78;;;0.90;99.90;;;;;;5111890;28;20369;-63
2023/01/25 09:32:18;;;;;;;56.78;32.70;;;0.90;99.90;;;;;;5111739;28;20502;-62
2023/01/25 09:34:44;;;;;;;51.67;29.00;;;0.90;99.90;;;;;;5108353;28;20035;-63
2023/01/25 09:37:09;;;;;;;50.90;28.30;;;0.80;99.90;;;;;;5110741;28;20492;-63
2023/01/25 09:39:35;;;;;;;50.95;28.58;;;0.80;99.90;;;;;;5111013;28;20034;-63
2023/01/25 09:42:33;;;;;;;46.75;25.67;;;0.90;99.90;;;;;;5091066;28;20018;-63
2023/01/25 09:45:16;;;;;;;56.42;31.38;;;0.90;99.90;;;;;;5107062;28;20023;-62
2023/01/25 09:48:07;;;;;;;58.00;32.15;;;0.90;99.90;;;;;;5102788;28;20488;-63
2023/01/25 09:50:38;;;;;;;58.38;31.80;;;0.90;99.90;;;;;;5106853;28;20027;-63
2023/01/25 09:53:33;;;;;;;58.90;32.67;;;0.90;99.90;;;;;;5093147;28;20046;-63
2023/01/25 09:56:14;;;;;;;60.25;33.28;;;0.90;99.90;;;;;;5088492;28;20020;-63
2023/01/25 09:58:45;;;;;;;55.67;31.60;;;0.90;99.90;;;;;;5105977;28;20102;-63
2023/01/25 10:01:46;;;;;;;57.78;32.17;;;0.90;99.90;;;;;;5093868;28;20023;-63
2023/01/25 10:04:25;;;;;;;59.15;32.40;;;1.00;99.90;;;;;;5078277;28;20032;-63
2023/01/25 10:07:01;;;;;;;68.78;37.50;;;0.90;99.90;;;;;;5098691;28;20034;-63
2023/01/25 10:09:32;;;;;;;62.38;34.13;;;0.90;99.90;;;;;;5099428;28;20054;-63
2023/01/25 10:12:16;;;;;;;55.72;31.75;;;0.80;99.90;;;;;;5092708;28;20111;-62
2023/01/25 10:14:41;;;;;;;64.72;35.28;;;0.80;99.90;;;;;;5092627;28;20036;-62
2023/01/25 10:17:34;;;;;;;71.45;39.45;;;0.80;99.90;;;;;;5092486;28;20066;-63
2023/01/25 10:20:32;;;;;;;73.28;40.72;;;0.80;99.90;;;;;;5082597;28;20122;-63
2023/01/25 10:23:34;;;;;;;62.10;34.88;;;0.70;99.90;;;;;;5092103;28;20043;-63
2023/01/25 10:26:06;;;;;;;53.70;29.55;;;0.80;99.90;;;;;;5067427;28;20119;-63
2023/01/25 10:28:45;;;;;;;51.72;29.05;;;0.80;99.90;;;;;;5089374;28;20135;-63
2023/01/25 10:31:21;;;;;;;54.33;29.10;;;0.80;99.90;;;;;;5092430;28;20039;-63
2023/01/25 10:33:47;;;;;;;51.42;27.88;;;0.90;99.90;;;;;;5096724;28;20023;-63
2023/01/25 10:36:31;;;;;;;53.80;28.70;;;0.90;99.90;;;;;;5097111;28;20105;-64
2023/01/25 10:38:59;;;;;;;55.97;30.77;;;1.00;99.90;;;;;;5099061;28;20077;-63
2023/01/25 10:41:28;;;;;;;59.42;31.52;;;1.00;99.90;;;;;;5099148;28;20077;-63
2023/01/25 10:46:40;;;;;;;61.03;33.60;;;0.90;99.90;;;;;;5101952;28;20072;-63
2023/01/25 10:49:28;;;;;;;56.78;31.30;;;1.00;99.90;;;;;;5107276;28;20026;-63
2023/01/25 10:51:54;;;;;;;59.25;32.00;;;1.00;99.90;;;;;;5091183;28;20407;-63
2023/01/25 10:54:21;;;;;;;61.20;32.88;;;1.00;99.90;;;;;;5107300;28;20024;-64
2023/01/25 10:56:47;;;;;;;64.43;33.70;;;1.00;99.90;;;;;;5072990;28;20039;-63
2023/01/25 10:59:13;;;;;;;58.70;32.15;;;1.10;99.90;;;;;;5082907;28;20024;-63
2023/01/25 11:01:38;;;;;;;60.90;31.40;;;1.10;99.90;;;;;;5091017;28;20032;-63
2023/01/25 11:04:27;;;;;;;67.38;35.20;;;1.10;99.90;;;;;;5091432;28;20034;-63
2023/01/25 11:06:53;;;;;;;89.72;48.63;;;1.20;99.90;;;;;;5090903;28;20030;-63
2023/01/25 11:09:21;;;;;;;83.93;44.85;;;1.00;99.90;;;;;;5090823;28;20020;-63
2023/01/25 11:11:55;;;;;;;77.65;42.25;;;0.90;99.90;;;;;;5075251;28;20068;-62
2023/01/25 11:14:24;;;;;;;76.72;42.08;;;0.90;99.90;;;;;;5089178;28;20038;-63
2023/01/25 11:16:50;;;;;;;77.47;41.55;;;0.80;99.90;;;;;;5106627;28;20039;-62
2023/01/25 11:19:35;;;;;;;66.78;35.72;;;0.70;99.90;;;;;;5102874;28;20409;-62
2023/01/25 11:22:03;;;;;;;67.22;36.30;;;0.80;99.90;;;;;;5090699;28;20094;-62
2023/01/25 11:24:34;;;;;;;75.65;40.22;;;0.80;99.90;;;;;;5105865;22;20228;-93
2023/01/25 11:27:19;;;;;;;79.70;43.33;;;0.90;99.90;;;;;;5074360;28;20135;-95
2023/01/25 11:30:05;;;;;;;77.72;41.22;;;0.80;99.90;;;;;;5071971;28;20043;-95
2023/01/25 11:32:32;;;;;;;69.97;37.13;;;0.80;99.90;;;;;;5071587;28;20016;-93
2023/01/25 11:34:58;;;;;;;68.88;37.28;;;0.80;99.90;;;;;;5072946;28;20020;-95
2023/01/25 11:37:48;;;;;;;70.97;38.22;;;0.80;99.90;;;;;;5070784;28;20469;-95
2023/01/25 11:40:21;;;;;;;63.13;34.78;;;0.90;99.90;;;;;;5084378;28;20025;-93
2023/01/25 11:42:57;;;;;;;56.83;31.27;;;0.90;99.90;;;;;;5059685;28;20337;-95
2023/01/25 11:46:01;;;;;;;51.30;27.65;;;1.00;99.90;;;;;;5070282;28;20025;-94
2023/01/25 11:48:58;;;;;;;54.92;28.65;;;1.10;99.90;;;;;;5063277;28;20040;-94
2023/01/25 11:51:45;;;;;;;86.63;44.67;;;1.10;99.90;;;;;;5068385;28;20120;-96
2023/01/25 11:54:39;;;;;;;87.90;45.92;;;1.00;99.90;;;;;;5089826;28;20394;-94
2023/01/25 11:57:38;;;;;;;80.00;43.10;;;0.90;99.90;;;;;;5108742;28;20042;-93
2023/01/25 12:00:21;;;;;;;84.00;43.25;;;0.80;99.90;;;;;;5082255;28;20028;-95
2023/01/25 12:02:53;;;;;;;82.40;43.83;;;0.70;99.90;;;;;;5081572;28;20043;-96
2023/01/25 12:05:56;;;;;;;89.72;47.40;;;0.60;99.90;;;;;;5077658;28;20073;-95
2023/01/25 12:08:54;;;;;;;74.25;39.75;;;0.60;99.90;;;;;;5090055;28;20048;-94
2023/01/25 12:11:28;;;;;;;86.57;44.58;;;0.60;99.90;;;;;;5080105;28;20024;-96
2023/01/25 12:14:10;;;;;;;92.15;48.05;;;0.60;99.90;;;;;;5083624;28;20452;-95
2023/01/25 12:16:44;;;;;;;95.13;47.50;;;0.50;99.90;;;;;;5087992;28;20056;-95
2023/01/25 12:19:26;;;;;;;94.05;47.42;;;0.50;99.90;;;;;;5077295;28;20600;-96
2023/01/25 12:22:27;;;;;;;89.55;46.63;;;0.40;99.90;;;;;;5077113;28;20490;-95
2023/01/25 12:25:04;;;;;;;80.63;41.90;;;0.40;99.90;;;;;;5062528;28;20039;-96
2023/01/25 12:28:05;;;;;;;75.03;38.10;;;0.40;99.90;;;;;;5078659;28;20020;-95
2023/01/25 12:30:54;;;;;;;73.80;38.95;;;0.50;99.90;;;;;;5071990;28;20025;-95
2023/01/25 12:33:44;;;;;;;76.37;39.07;;;0.60;99.90;;;;;;5073542;28;20031;-95
2023/01/25 12:36:20;;;;;;;79.35;39.72;;;0.60;99.90;;;;;;5074554;28;20070;-94
2023/01/25 12:39:02;;;;;;;82.00;41.38;;;0.60;99.90;;;;;;5083597;28;20028;-94
2023/01/25 12:41:49;;;;;;;79.15;40.17;;;0.70;99.90;;;;;;5073567;28;20024;-93
2023/01/25 12:44:20;;;;;;;69.57;35.92;;;0.70;99.90;;;;;;5069137;28;20020;-95
2023/01/25 12:47:12;;;;;;;65.63;34.20;;;0.70;99.90;;;;;;5076724;28;20032;-94
2023/01/25 12:49:48;;;;;;;62.88;31.80;;;0.80;99.90;;;;;;5071137;28;20020;-95
2023/01/25 12:52:22;;;;;;;58.17;28.92;;;0.80;99.90;;;;;;5075881;28;20107;-94
2023/01/25 12:54:50;;;;;;;69.03;34.97;;;0.90;99.90;;;;;;5079546;28;20016;-95
2023/01/25 12:57:37;;;;;;;67.65;34.78;;;0.90;99.90;;;;;;5079823;28;20085;-95
2023/01/25 13:00:31;;;;;;;68.38;34.13;;;1.00;99.90;;;;;;5090159;28;20119;-96